Time;durP1;ratioP1;P1;durP2;ratioP2;P2;SDS_P1;SDS_P2;PMS_P1;PMS_P2;Temp;Humidity;BMP_temperature;BMP_pressure;BME280_temperature;BME280_humidity;BME280_pressure;Samples;Min_cycle;Max_cycle;Signal;HPM_P1;HPM_P2
2022/09/03 00:01:30;;;;;;;4.82;1.35;;;21.30;71.20;;;;;;5052398;28;20082;-79
2022/09/03 00:04:02;;;;;;;6.22;1.92;;;21.30;71.20;;;;;;5052575;28;20032;-78
2022/09/03 00:06:42;;;;;;;3.50;1.90;;;21.30;71.10;;;;;;5052504;28;20025;-78
2022/09/03 00:09:23;;;;;;;7.55;1.60;;;21.40;71.00;;;;;;5052296;28;20037;-78
2022/09/03 00:12:04;;;;;;;6.35;1.50;;;21.60;71.10;;;;;;5052636;28;20037;-78
2022/09/03 00:14:34;;;;;;;4.13;1.67;;;21.60;71.00;;;;;;5052385;28;20112;-77
2022/09/03 00:17:15;;;;;;;3.13;1.50;;;21.50;71.20;;;;;;5052470;28;20037;-77
2022/09/03 00:20:11;;;;;;;8.82;1.60;;;21.50;71.10;;;;;;5052257;28;20060;-77
2022/09/03 00:22:45;;;;;;;2.70;1.30;;;21.50;71.70;;;;;;5048830;28;20056;-77
2022/09/03 00:25:18;;;;;;;9.82;1.60;;;21.50;71.50;;;;;;5050974;28;20036;-78
2022/09/03 00:27:50;;;;;;;2.40;1.55;;;21.60;71.20;;;;;;5052250;28;20087;-77
2022/09/03 00:30:17;;;;;;;6.03;1.63;;;21.60;71.20;;;;;;5050935;28;20040;-77
2022/09/03 00:33:01;;;;;;;5.32;1.60;;;21.60;71.30;;;;;;5052309;28;20532;-78
2022/09/03 00:35:44;;;;;;;7.10;1.60;;;21.50;71.50;;;;;;5049668;28;20017;-77
2022/09/03 00:38:10;;;;;;;2.03;1.45;;;21.60;71.30;;;;;;5052114;28;20041;-77
2022/09/03 00:41:15;;;;;;;7.28;1.60;;;21.40;71.80;;;;;;5051958;28;20021;-76
2022/09/03 00:43:49;;;;;;;6.93;1.70;;;21.20;71.90;;;;;;5040108;28;20040;-76
2022/09/03 00:46:41;;;;;;;9.05;1.40;;;21.20;72.30;;;;;;5052885;28;20044;-77
2022/09/03 00:49:25;;;;;;;7.30;1.85;;;21.20;72.20;;;;;;5045122;28;20116;-78
2022/09/03 00:51:55;;;;;;;4.88;1.75;;;21.10;72.70;;;;;;5055889;28;20055;-77
2022/09/03 00:54:45;;;;;;;12.98;1.83;;;21.20;72.10;;;;;;5055975;28;20029;-78
2022/09/03 00:57:29;;;;;;;1.73;1.27;;;21.10;72.10;;;;;;5055348;28;20075;-78
2022/09/03 01:00:09;;;;;;;7.07;1.40;;;21.30;72.70;;;;;;5055850;28;20033;-77
2022/09/03 01:03:04;;;;;;;2.65;1.40;;;21.10;72.40;;;;;;5055868;28;20116;-78
2022/09/03 01:05:48;;;;;;;7.60;1.67;;;21.00;73.00;;;;;;5055736;28;20485;-77
2022/09/03 01:08:17;;;;;;;3.50;1.38;;;21.00;73.60;;;;;;5055764;28;20036;-77
2022/09/03 01:11:03;;;;;;;7.35;1.85;;;21.00;73.10;;;;;;5070660;28;20060;-78
2022/09/03 01:13:56;;;;;;;9.27;2.22;;;21.10;73.20;;;;;;5030572;28;20072;-77
2022/09/03 01:16:30;;;;;;;7.43;1.80;;;21.00;73.10;;;;;;5044261;28;20029;-77
2022/09/03 01:19:01;;;;;;;5.43;1.83;;;21.10;73.10;;;;;;5055380;28;20362;-77
2022/09/03 01:21:33;;;;;;;2.75;1.70;;;21.10;73.40;;;;;;5055554;28;20025;-78
2022/09/03 01:24:17;;;;;;;6.20;1.75;;;21.30;73.30;;;;;;5055325;28;20033;-78
2022/09/03 01:27:09;;;;;;;5.25;1.48;;;21.20;72.90;;;;;;5055466;28;20036;-78
2022/09/03 01:29:43;;;;;;;2.92;1.48;;;21.00;73.70;;;;;;5055234;28;20025;-78
2022/09/03 01:32:34;;;;;;;13.18;1.90;;;20.80;73.90;;;;;;5055333;28;20029;-78
2022/09/03 01:35:37;;;;;;;5.18;1.63;;;20.80;74.00;;;;;;5025048;28;20114;-78
2022/09/03 01:38:23;;;;;;;5.88;1.35;;;20.90;73.70;;;;;;5054956;28;20033;-78
2022/09/03 01:44:17;;;;;;;4.35;1.50;;;20.90;74.00;;;;;;5041055;28;20516;-78
2022/09/03 01:46:44;;;;;;;5.85;1.92;;;20.60;74.70;;;;;;5054964;28;20025;-78
2022/09/03 01:49:40;;;;;;;6.30;1.60;;;20.50;74.90;;;;;;5055067;28;20025;-78
2022/09/03 01:52:20;;;;;;;5.97;1.75;;;20.40;75.30;;;;;;5053587;28;20068;-78
2022/09/03 01:54:58;;;;;;;5.35;1.90;;;20.30;75.60;;;;;;5054614;28;20036;-77
2022/09/03 01:57:40;;;;;;;4.60;1.65;;;20.20;75.70;;;;;;5054082;28;20098;-78
2022/09/03 02:00:12;;;;;;;6.50;2.08;;;20.30;75.80;;;;;;5053326;28;20025;-78
2022/09/03 02:02:46;;;;;;;13.02;2.28;;;20.20;76.00;;;;;;5054816;28;20021;-78
2022/09/03 02:05:22;;;;;;;5.68;1.33;;;20.30;76.20;;;;;;5037110;28;20024;-78
2022/09/03 02:08:00;;;;;;;4.45;1.40;;;20.40;76.30;;;;;;5053266;28;20404;-78
2022/09/03 02:10:31;;;;;;;2.83;1.60;;;20.30;76.40;;;;;;5054381;28;20013;-78
2022/09/03 02:13:04;;;;;;;2.92;1.45;;;20.30;76.50;;;;;;5054597;28;20048;-78
2022/09/03 02:15:31;;;;;;;5.38;1.55;;;20.30;76.60;;;;;;5054469;28;20032;-78
2022/09/03 02:18:02;;;;;;;8.15;2.30;;;20.20;76.80;;;;;;5054494;28;20037;-78
2022/09/03 02:20:29;;;;;;;6.28;1.90;;;20.40;76.90;;;;;;5054369;28;20027;-78
2022/09/03 02:22:57;;;;;;;12.52;1.70;;;20.40;76.70;;;;;;5054390;28;20068;-78
2022/09/03 02:25:31;;;;;;;5.85;1.63;;;20.30;77.30;;;;;;5052697;28;20021;-78
2022/09/03 02:27:57;;;;;;;5.55;1.70;;;20.50;77.20;;;;;;5054382;28;20029;-78
2022/09/03 02:30:23;;;;;;;5.13;1.73;;;20.30;77.00;;;;;;5054099;28;20055;-78
2022/09/03 02:32:49;;;;;;;7.88;2.05;;;20.30;77.80;;;;;;5054341;28;20040;-78
2022/09/03 02:35:15;;;;;;;3.47;1.48;;;20.30;77.80;;;;;;5054262;28;20032;-78
2022/09/03 02:37:41;;;;;;;2.38;1.63;;;20.20;77.90;;;;;;5053480;28;20023;-77
2022/09/03 02:40:09;;;;;;;4.43;1.65;;;20.10;78.50;;;;;;5054160;28;20032;-78
2022/09/03 02:42:35;;;;;;;5.15;1.70;;;20.10;78.50;;;;;;5054034;28;20063;-78
2022/09/03 02:45:20;;;;;;;4.22;1.60;;;20.10;78.80;;;;;;5052563;28;20041;-78
2022/09/03 02:47:51;;;;;;;5.30;1.77;;;20.20;79.50;;;;;;5053859;28;20412;-78
2022/09/03 02:50:17;;;;;;;4.63;1.70;;;20.10;79.50;;;;;;5053692;28;20041;-78
2022/09/03 02:52:42;;;;;;;5.32;1.58;;;20.00;79.90;;;;;;5053775;28;20066;-79
2022/09/03 02:55:08;;;;;;;5.82;2.05;;;20.20;79.70;;;;;;5053563;28;20371;-78
2022/09/03 02:57:34;;;;;;;6.72;1.60;;;20.10;79.60;;;;;;5052199;28;20049;-79
2022/09/03 03:00:00;;;;;;;4.32;1.90;;;20.10;80.00;;;;;;5053381;28;20025;-78
2022/09/03 03:02:25;;;;;;;14.45;2.10;;;20.10;80.90;;;;;;5053673;28;20025;-78
2022/09/03 03:04:51;;;;;;;6.55;1.98;;;20.10;80.90;;;;;;5053431;28;20040;-78
2022/09/03 03:07:17;;;;;;;6.13;1.90;;;20.10;79.90;;;;;;5053404;28;20104;-77
2022/09/03 03:09:43;;;;;;;12.90;2.13;;;20.10;80.00;;;;;;5053003;28;20044;-78
2022/09/03 03:12:09;;;;;;;5.28;2.22;;;20.00;80.40;;;;;;5053237;28;20021;-78
2022/09/03 03:14:35;;;;;;;6.53;2.15;;;19.90;80.90;;;;;;5052227;28;20032;-78
2022/09/03 03:17:01;;;;;;;7.57;2.03;;;19.90;81.40;;;;;;5053338;28;20029;-79
2022/09/03 03:19:27;;;;;;;11.90;1.63;;;19.90;81.00;;;;;;5053179;28;20047;-79
2022/09/03 03:21:53;;;;;;;7.65;2.08;;;20.20;80.60;;;;;;5053058;28;20558;-79
2022/09/03 03:24:18;;;;;;;5.45;1.75;;;20.30;80.00;;;;;;5052909;28;20099;-79
2022/09/03 03:26:44;;;;;;;3.40;1.65;;;20.50;79.50;;;;;;5053594;28;20033;-79
2022/09/03 03:29:16;;;;;;;4.18;1.73;;;20.30;81.50;;;;;;5053329;28;20511;-76
2022/09/03 03:31:42;;;;;;;13.93;1.98;;;20.30;81.40;;;;;;5053197;28;20037;-78
2022/09/03 03:34:08;;;;;;;8.70;1.65;;;20.30;80.90;;;;;;5068099;28;20021;-78
2022/09/03 03:36:34;;;;;;;3.97;1.80;;;20.40;81.00;;;;;;5068111;28;20396;-79
2022/09/03 03:39:01;;;;;;;9.63;1.90;;;20.20;81.40;;;;;;5051536;28;20041;-78
2022/09/03 03:41:33;;;;;;;7.25;1.80;;;20.20;81.40;;;;;;5052879;28;20116;-79
2022/09/03 03:44:06;;;;;;;5.32;1.75;;;20.00;81.60;;;;;;5052690;28;20112;-79
2022/09/03 03:46:38;;;;;;;10.32;2.13;;;19.90;81.70;;;;;;5052731;28;20056;-78
2022/09/03 03:49:07;;;;;;;4.25;1.80;;;19.90;82.10;;;;;;5052788;28;20033;-78
2022/09/03 03:51:34;;;;;;;9.00;2.00;;;20.00;82.20;;;;;;5052564;28;20024;-78
2022/09/03 03:54:01;;;;;;;4.53;1.73;;;20.00;81.40;;;;;;5052480;28;20032;-78
2022/09/03 03:56:27;;;;;;;5.25;1.52;;;20.10;81.70;;;;;;5052461;28;20435;-78
2022/09/03 03:58:53;;;;;;;6.53;1.73;;;20.10;82.00;;;;;;5068051;28;20033;-78
2022/09/03 04:01:22;;;;;;;5.65;1.70;;;20.00;81.60;;;;;;5052713;28;20408;-77
2022/09/03 04:03:48;;;;;;;2.63;1.80;;;20.00;82.30;;;;;;5057054;28;20051;-78
2022/09/03 04:06:16;;;;;;;5.00;1.80;;;19.90;82.90;;;;;;5059833;28;20465;-78
2022/09/03 04:08:44;;;;;;;7.60;1.80;;;20.00;82.50;;;;;;5051272;28;20381;-78
2022/09/03 04:11:13;;;;;;;4.38;1.67;;;19.90;82.50;;;;;;5052413;28;20029;-78
2022/09/03 04:13:41;;;;;;;5.93;2.00;;;20.00;82.90;;;;;;5052346;28;20029;-78
2022/09/03 04:16:15;;;;;;;4.80;1.67;;;19.90;82.80;;;;;;5051151;28;20013;-78
2022/09/03 04:18:41;;;;;;;7.13;1.95;;;19.60;83.80;;;;;;5052352;28;20037;-78
2022/09/03 04:21:13;;;;;;;6.03;1.63;;;19.60;84.20;;;;;;5052473;28;20381;-78
2022/09/03 04:23:40;;;;;;;;;;;19.60;84.60;;;;;;5056991;28;20034;-78
2022/09/03 04:26:07;;;;;;;4.93;1.92;;;19.60;85.20;;;;;;5056345;28;19991;-77
2022/09/03 04:28:33;;;;;;;6.32;2.30;;;19.70;84.50;;;;;;5055467;28;20025;-77
2022/09/03 04:31:04;;;;;;;10.82;2.03;;;19.70;84.80;;;;;;5056497;28;20025;-77
2022/09/03 04:33:31;;;;;;;12.70;2.53;;;20.00;84.10;;;;;;5056215;28;20055;-77
2022/09/03 04:36:21;;;;;;;8.88;2.53;;;20.20;83.30;;;;;;5056377;28;20322;-77
2022/09/03 04:38:52;;;;;;;4.25;1.85;;;20.00;84.50;;;;;;5055030;28;20099;-77
2022/09/03 04:41:20;;;;;;;7.93;2.35;;;20.00;86.30;;;;;;5056378;28;20056;-77
2022/09/03 04:43:47;;;;;;;6.80;1.55;;;20.10;86.50;;;;;;5056327;28;20044;-77
2022/09/03 04:46:14;;;;;;;6.03;1.90;;;20.00;86.60;;;;;;5056350;28;20021;-77
2022/09/03 04:48:39;;;;;;;7.72;2.20;;;19.90;86.70;;;;;;5056125;28;20119;-77
2022/09/03 04:51:08;;;;;;;7.60;2.03;;;20.00;86.90;;;;;;5054678;28;20132;-77
2022/09/03 04:53:39;;;;;;;9.23;2.10;;;19.90;86.70;;;;;;5056086;28;20047;-76
2022/09/03 04:56:32;;;;;;;16.50;2.50;;;19.90;87.20;;;;;;5055793;28;20065;-77
2022/09/03 04:59:08;;;;;;;3.25;1.70;;;20.10;86.60;;;;;;5042611;28;20045;-77
2022/09/03 05:01:36;;;;;;;4.38;1.90;;;19.80;87.90;;;;;;5055463;28;20466;-77
2022/09/03 05:04:03;;;;;;;10.75;2.00;;;19.70;88.10;;;;;;5055025;28;20120;-77
2022/09/03 05:06:30;;;;;;;14.68;2.38;;;19.90;88.60;;;;;;5055439;28;20025;-77
2022/09/03 05:08:56;;;;;;;8.98;1.80;;;19.80;88.80;;;;;;5055623;28;20039;-77
2022/09/03 05:11:24;;;;;;;6.28;1.85;;;19.70;89.10;;;;;;5055750;28;20056;-78
2022/09/03 05:13:52;;;;;;;20.13;2.25;;;19.70;89.90;;;;;;5055445;28;20542;-79
2022/09/03 05:16:20;;;;;;;15.98;2.58;;;19.70;89.70;;;;;;5054458;28;20036;-78
2022/09/03 05:18:46;;;;;;;15.73;2.00;;;19.90;89.80;;;;;;5055148;28;20029;-79
2022/09/03 05:21:15;;;;;;;7.97;1.77;;;19.90;89.50;;;;;;5054212;28;20029;-78
2022/09/03 05:23:43;;;;;;;4.57;2.28;;;20.10;89.40;;;;;;5055608;28;20025;-78
2022/09/03 05:26:15;;;;;;;8.48;2.00;;;20.20;89.50;;;;;;5055591;28;20029;-78
2022/09/03 05:28:42;;;;;;;3.85;2.00;;;20.40;88.80;;;;;;5053925;28;20040;-78
2022/09/03 05:31:19;;;;;;;5.25;2.33;;;20.30;88.70;;;;;;5055429;28;20031;-78
2022/09/03 05:33:48;;;;;;;6.88;1.85;;;20.20;88.70;;;;;;5053448;28;20161;-79
2022/09/03 05:36:21;;;;;;;9.20;2.28;;;20.30;88.70;;;;;;5054351;28;20025;-78
2022/09/03 05:38:47;;;;;;;6.60;2.10;;;20.10;89.70;;;;;;5053792;28;20052;-77
2022/09/03 05:41:14;;;;;;;13.68;2.47;;;20.10;90.10;;;;;;5055197;28;20094;-77
2022/09/03 05:43:41;;;;;;;7.07;2.60;;;20.20;89.70;;;;;;5055068;28;20127;-78
2022/09/03 05:46:10;;;;;;;11.15;1.92;;;20.30;90.50;;;;;;5054818;28;20436;-77
2022/09/03 05:48:37;;;;;;;7.30;1.77;;;20.30;90.60;;;;;;5055044;28;20078;-78
2022/09/03 05:51:09;;;;;;;6.45;2.20;;;20.40;90.20;;;;;;5054933;28;20029;-75
2022/09/03 05:53:39;;;;;;;6.80;1.95;;;20.50;89.30;;;;;;5041071;28;20044;-74
2022/09/03 05:56:16;;;;;;;20.50;2.95;;;20.60;89.60;;;;;;5054765;28;20068;-76
2022/09/03 05:58:44;;;;;;;10.82;1.88;;;20.20;91.00;;;;;;5044307;28;20486;-76
2022/09/03 06:01:14;;;;;;;5.88;1.98;;;20.20;91.50;;;;;;5053484;28;20452;-74
2022/09/03 06:03:41;;;;;;;7.80;2.55;;;20.60;90.70;;;;;;5051727;28;20048;-74
2022/09/03 06:06:08;;;;;;;4.13;1.55;;;20.60;90.60;;;;;;5052772;28;20028;-75
2022/09/03 06:08:35;;;;;;;9.38;2.53;;;20.30;91.00;;;;;;5053512;28;20029;-77
2022/09/03 06:11:03;;;;;;;4.30;1.42;;;20.30;91.40;;;;;;5052634;28;20021;-76
2022/09/03 06:13:29;;;;;;;5.90;1.75;;;20.50;91.10;;;;;;5053484;28;20128;-76
2022/09/03 06:15:56;;;;;;;6.25;2.00;;;20.90;90.50;;;;;;5052325;28;20139;-75
2022/09/03 06:18:23;;;;;;;12.68;2.55;;;20.80;90.50;;;;;;5053246;28;20128;-74
2022/09/03 06:20:57;;;;;;;20.98;2.60;;;20.90;91.00;;;;;;5053481;28;20040;-75
2022/09/03 06:23:24;;;;;;;10.27;2.70;;;21.10;91.00;;;;;;5053448;28;20029;-76
2022/09/03 06:26:19;;;;;;;18.40;2.50;;;21.00;91.40;;;;;;5053217;28;20033;-75
2022/09/03 06:28:47;;;;;;;5.22;2.08;;;21.20;90.60;;;;;;5040173;28;20124;-77
2022/09/03 06:31:18;;;;;;;12.85;2.90;;;21.20;91.00;;;;;;5052596;28;20473;-74
2022/09/03 06:33:46;;;;;;;15.02;3.33;;;21.00;91.40;;;;;;5053221;28;20025;-75
2022/09/03 06:36:15;;;;;;;11.95;2.78;;;20.70;92.10;;;;;;5052927;28;20032;-74
2022/09/03 06:38:42;;;;;;;10.95;2.35;;;20.50;92.60;;;;;;5052921;28;20041;-75
2022/09/03 06:41:13;;;;;;;71.85;7.95;;;20.50;93.30;;;;;;5052965;28;20044;-75
2022/09/03 06:43:41;;;;;;;75.45;8.85;;;20.50;93.90;;;;;;5067801;28;20041;-74
2022/09/03 06:46:12;;;;;;;41.17;3.80;;;20.30;94.20;;;;;;5052434;28;20112;-74
2022/09/03 06:48:39;;;;;;;21.13;3.70;;;20.40;94.70;;;;;;5053267;28;20125;-77
2022/09/03 06:51:09;;;;;;;420.20;39.08;;;20.60;94.40;;;;;;5053262;28;20013;-76
2022/09/03 06:53:39;;;;;;;24.83;4.47;;;20.70;93.80;;;;;;5042177;28;20546;-76
2022/09/03 06:56:07;;;;;;;15.57;3.30;;;20.50;93.90;;;;;;5051456;28;20029;-77
2022/09/03 06:58:42;;;;;;;9.23;2.47;;;20.50;94.00;;;;;;5050702;28;20056;-77
2022/09/03 07:01:13;;;;;;;5.68;2.60;;;20.50;94.30;;;;;;5052537;28;20021;-76
2022/09/03 07:03:41;;;;;;;29.50;3.42;;;20.60;94.60;;;;;;5052802;28;20021;-76
2022/09/03 07:06:28;;;;;;;9.25;2.50;;;20.50;94.50;;;;;;5052538;28;20048;-78
2022/09/03 07:08:57;;;;;;;16.80;2.92;;;20.60;93.90;;;;;;5051585;28;20025;-76
2022/09/03 07:11:26;;;;;;;11.32;3.28;;;20.50;94.70;;;;;;5051353;28;20424;-76
2022/09/03 07:13:54;;;;;;;11.18;2.55;;;20.70;94.30;;;;;;5051578;28;20052;-77
2022/09/03 07:16:26;;;;;;;10.80;2.95;;;20.80;93.90;;;;;;5051876;28;20048;-76
2022/09/03 07:18:53;;;;;;;13.65;2.78;;;20.70;93.40;;;;;;5052779;28;20123;-75
2022/09/03 07:21:21;;;;;;;7.78;2.65;;;20.60;93.20;;;;;;5053138;28;20017;-76
2022/09/03 07:23:48;;;;;;;7.35;3.00;;;20.70;93.80;;;;;;5051553;28;20756;-75
2022/09/03 07:26:19;;;;;;;6.78;2.88;;;20.60;93.90;;;;;;5052633;28;20028;-76
2022/09/03 07:28:46;;;;;;;10.13;2.50;;;20.70;93.00;;;;;;5052680;28;20051;-75
2022/09/03 07:31:17;;;;;;;15.30;2.72;;;20.60;94.30;;;;;;5052893;28;20778;-74
2022/09/03 07:33:43;;;;;;;107.45;5.78;;;20.60;93.50;;;;;;5051595;28;20463;-75
2022/09/03 07:36:13;;;;;;;33.70;3.65;;;20.30;94.10;;;;;;5052575;28;20048;-75
2022/09/03 07:38:40;;;;;;;19.63;3.40;;;20.30;94.70;;;;;;5045826;28;20037;-76
2022/09/03 07:41:07;;;;;;;35.55;3.67;;;20.40;94.30;;;;;;5052838;28;20033;-74
2022/09/03 07:43:42;;;;;;;17.67;2.05;;;20.50;94.90;;;;;;5052354;28;20539;-75
2022/09/03 07:46:11;;;;;;;168.85;16.65;;;20.70;94.70;;;;;;5068009;28;20041;-76
2022/09/03 07:48:42;;;;;;;10.75;2.33;;;20.90;94.30;;;;;;5052816;28;20033;-74
2022/09/03 07:51:08;;;;;;;13.85;3.10;;;21.20;94.30;;;;;;5052680;28;20036;-75
2022/09/03 07:53:35;;;;;;;19.33;2.58;;;21.30;94.20;;;;;;5052894;28;20021;-76
2022/09/03 07:56:03;;;;;;;9.30;2.35;;;21.70;93.50;;;;;;5052323;28;20040;-75
2022/09/03 07:58:30;;;;;;;465.55;45.03;;;21.80;94.50;;;;;;5052149;28;20037;-74
2022/09/03 08:00:56;;;;;;;11.95;2.72;;;22.00;93.20;;;;;;5067891;28;20068;-75
2022/09/03 08:03:22;;;;;;;16.45;3.15;;;22.00;92.90;;;;;;5052399;28;20036;-75
2022/09/03 08:05:48;;;;;;;16.27;2.90;;;22.10;93.80;;;;;;5052490;28;20028;-74
2022/09/03 08:08:14;;;;;;;11.95;2.30;;;22.40;92.30;;;;;;5052302;28;20033;-75
2022/09/03 08:10:41;;;;;;;6.97;2.38;;;22.60;92.40;;;;;;5052198;28;20021;-74
2022/09/03 08:13:07;;;;;;;7.32;1.90;;;22.80;91.20;;;;;;5052269;28;20032;-78
2022/09/03 08:15:33;;;;;;;9.55;2.22;;;22.90;91.20;;;;;;5052199;28;20021;-78
2022/09/03 08:18:00;;;;;;;14.48;2.55;;;22.70;91.50;;;;;;5052490;28;20036;-78
2022/09/03 08:20:26;;;;;;;12.25;2.38;;;22.60;92.00;;;;;;5051935;28;20021;-78
2022/09/03 08:22:59;;;;;;;8.85;2.38;;;22.70;92.10;;;;;;5052407;28;20082;-78
2022/09/03 08:25:25;;;;;;;16.00;3.40;;;22.90;92.20;;;;;;5051893;28;20366;-78
2022/09/03 08:27:51;;;;;;;8.50;2.42;;;23.00;92.00;;;;;;5051854;28;20041;-78
2022/09/03 08:30:17;;;;;;;6.10;1.90;;;23.10;91.50;;;;;;5052123;28;20025;-77
2022/09/03 08:32:43;;;;;;;11.45;2.65;;;23.20;90.90;;;;;;5052057;28;20033;-79
2022/09/03 08:35:09;;;;;;;11.38;1.98;;;23.30;91.40;;;;;;5049855;28;20025;-78
2022/09/03 08:37:35;;;;;;;20.02;2.65;;;23.20;91.20;;;;;;5053800;28;20021;-78
2022/09/03 08:40:03;;;;;;;10.10;2.20;;;23.20;90.60;;;;;;5051710;28;20036;-78
2022/09/03 08:43:04;;;;;;;9.98;2.30;;;22.80;90.80;;;;;;5051868;28;20025;-78
2022/09/03 08:45:32;;;;;;;8.40;1.98;;;22.80;91.30;;;;;;5057181;28;20032;-78
2022/09/03 08:48:14;;;;;;;29.52;3.25;;;22.90;91.70;;;;;;5052020;28;20056;-79
2022/09/03 08:50:50;;;;;;;9.32;2.20;;;23.30;91.30;;;;;;5050671;28;20043;-79
2022/09/03 08:53:30;;;;;;;9.07;2.22;;;23.30;91.20;;;;;;5052102;28;20021;-78
2022/09/03 08:56:09;;;;;;;18.58;2.40;;;23.50;91.10;;;;;;5051315;28;20044;-79
2022/09/03 08:58:43;;;;;;;6.70;2.40;;;24.10;90.70;;;;;;5051756;28;20091;-78
2022/09/03 09:01:23;;;;;;;12.25;2.30;;;23.90;89.30;;;;;;5051911;28;20024;-78
2022/09/03 09:03:55;;;;;;;7.75;2.05;;;23.90;90.30;;;;;;5053774;28;20021;-79
2022/09/03 09:06:42;;;;;;;4.93;1.92;;;24.00;89.20;;;;;;5067224;28;20090;-79
2022/09/03 09:09:48;;;;;;;12.57;2.50;;;24.00;90.10;;;;;;5053821;28;20021;-78
2022/09/03 09:12:52;;;;;;;6.10;2.78;;;24.00;90.20;;;;;;5054238;28;20087;-78
2022/09/03 09:15:29;;;;;;;15.40;2.72;;;23.60;91.10;;;;;;5055703;28;20040;-78
2022/09/03 09:18:04;;;;;;;11.15;2.78;;;23.40;91.40;;;;;;5070697;28;20041;-78
2022/09/03 09:20:48;;;;;;;11.98;2.35;;;23.40;91.70;;;;;;5055249;28;20036;-78
2022/09/03 09:23:23;;;;;;;7.55;2.95;;;24.10;91.10;;;;;;5055514;28;20033;-78
2022/09/03 09:25:50;;;;;;;14.13;3.25;;;24.30;91.00;;;;;;5054979;28;20021;-78
2022/09/03 09:28:27;;;;;;;7.18;2.28;;;24.30;91.50;;;;;;5055154;28;20040;-78
2022/09/03 09:30:56;;;;;;;10.07;2.38;;;24.70;91.00;;;;;;5053787;28;20032;-79
2022/09/03 09:33:22;;;;;;;24.98;4.53;;;25.20;91.00;;;;;;5055231;28;20036;-78
2022/09/03 09:35:49;;;;;;;15.90;3.13;;;25.80;90.50;;;;;;5055227;28;20020;-78
2022/09/03 09:38:26;;;;;;;18.08;3.60;;;26.20;90.20;;;;;;5054692;28;20040;-78
2022/09/03 09:40:51;;;;;;;9.57;3.40;;;26.50;88.70;;;;;;5053928;28;20393;-78
2022/09/03 09:43:20;;;;;;;10.73;3.50;;;26.30;88.70;;;;;;5054759;28;20021;-78
2022/09/03 09:45:48;;;;;;;11.90;3.55;;;25.90;90.80;;;;;;5054918;28;20112;-78
2022/09/03 09:48:30;;;;;;;4.93;3.38;;;26.40;91.20;;;;;;5054685;28;20036;-77
2022/09/03 09:51:08;;;;;;;126.35;8.05;;;26.30;90.60;;;;;;5053616;28;20029;-78
2022/09/03 09:53:35;;;;;;;6.30;3.08;;;25.90;91.60;;;;;;5040637;28;20166;-78
2022/09/03 09:56:04;;;;;;;4.18;3.17;;;25.90;92.00;;;;;;5054427;28;20063;-79
2022/09/03 09:58:32;;;;;;;14.50;3.40;;;25.70;92.60;;;;;;5053056;28;20048;-80
2022/09/03 10:01:13;;;;;;;4.43;2.80;;;25.50;93.10;;;;;;5043755;28;20032;-79
2022/09/03 10:03:54;;;;;;;9.73;3.47;;;26.10;92.70;;;;;;5041418;28;20495;-79
2022/09/03 10:09:14;;;;;;;8.43;3.33;;;26.00;92.60;;;;;;5053137;28;20386;-79
2022/09/03 10:11:44;;;;;;;7.25;2.60;;;25.90;92.50;;;;;;5053544;28;20039;-79
2022/09/03 10:14:36;;;;;;;7.70;2.80;;;26.30;92.40;;;;;;5053507;28;20025;-79
2022/09/03 10:17:22;;;;;;;8.27;2.90;;;26.40;92.00;;;;;;5053507;28;20045;-80
2022/09/03 10:22:56;;;;;;;6.90;2.65;;;25.80;92.70;;;;;;5043273;28;20036;-80
2022/09/03 10:25:25;;;;;;;10.20;2.78;;;26.50;92.30;;;;;;5035318;28;20025;-79
2022/09/03 10:27:53;;;;;;;5.95;2.67;;;26.60;91.80;;;;;;5053359;28;20029;-79
2022/09/03 10:30:19;;;;;;;11.70;2.58;;;26.40;92.10;;;;;;5068420;28;20030;-80
2022/09/03 10:33:17;;;;;;;9.88;2.50;;;27.00;91.70;;;;;;5053113;28;20063;-80
2022/09/03 10:35:52;;;;;;;24.67;3.05;;;27.20;91.40;;;;;;5053281;28;20025;-77
2022/09/03 10:38:31;;;;;;;3.67;2.63;;;27.50;92.00;;;;;;5052793;28;20045;-77
2022/09/03 10:41:19;;;;;;;4.47;2.22;;;27.50;92.00;;;;;;5052975;28;20377;-78
2022/09/03 10:44:20;;;;;;;6.55;2.03;;;27.30;92.00;;;;;;5053119;28;20029;-78
2022/09/03 10:47:08;;;;;;;4.40;2.28;;;27.30;91.50;;;;;;5009593;28;20037;-77
2022/09/03 10:49:50;;;;;;;14.90;2.85;;;27.60;91.40;;;;;;5052265;28;20107;-76
2022/09/03 10:52:23;;;;;;;7.25;2.45;;;27.60;91.60;;;;;;5051614;28;20036;-75
2022/09/03 10:54:57;;;;;;;5.75;2.55;;;28.10;91.60;;;;;;5043111;28;20128;-76
2022/09/03 10:58:31;;;;;;;5.53;2.55;;;27.50;90.70;;;;;;5051667;28;20033;-76
2022/09/03 11:01:09;;;;;;;10.00;2.00;;;27.20;91.30;;;;;;4977003;28;20522;-76
2022/09/03 11:03:37;;;;;;;4.07;2.65;;;27.80;91.20;;;;;;4973801;28;20026;-75
2022/09/03 11:06:29;;;;;;;6.35;2.30;;;28.00;91.00;;;;;;5036549;28;20036;-75
2022/09/03 11:09:12;;;;;;;5.53;2.83;;;27.90;90.90;;;;;;5051610;28;20021;-77
2022/09/03 11:11:46;;;;;;;10.68;2.10;;;28.40;90.50;;;;;;5065985;28;20414;-77
2022/09/03 11:14:24;;;;;;;4.22;2.17;;;28.80;90.00;;;;;;5051351;28;20055;-76
2022/09/03 11:16:57;;;;;;;7.28;2.50;;;29.10;88.10;;;;;;5051626;28;20377;-74
2022/09/03 11:19:34;;;;;;;9.07;2.42;;;29.40;87.50;;;;;;5051415;28;20037;-76
2022/09/03 11:22:01;;;;;;;15.52;2.40;;;30.30;86.90;;;;;;5050384;28;20032;-76
2022/09/03 11:24:31;;;;;;;3.17;2.17;;;31.00;86.10;;;;;;5049813;28;20024;-76
2022/09/03 11:27:16;;;;;;;4.85;2.33;;;30.10;84.30;;;;;;5049962;28;20028;-75
2022/09/03 11:29:54;;;;;;;5.22;2.47;;;29.80;84.60;;;;;;5048248;28;20037;-76
2022/09/03 11:32:27;;;;;;;9.98;2.55;;;29.40;84.90;;;;;;5046473;28;20143;-76
2022/09/03 11:34:54;;;;;;;10.23;2.58;;;29.10;86.60;;;;;;5037072;28;20028;-75
2022/09/03 11:37:28;;;;;;;5.97;2.35;;;28.80;87.00;;;;;;5050445;28;20094;-75
2022/09/03 11:40:03;;;;;;;5.32;2.38;;;28.60;87.80;;;;;;5051125;28;20490;-75
2022/09/03 11:42:30;;;;;;;5.20;2.67;;;29.50;87.10;;;;;;5047766;28;20028;-76
2022/09/03 11:45:21;;;;;;;28.90;3.90;;;29.80;86.70;;;;;;5051166;28;20017;-75
2022/09/03 11:47:49;;;;;;;10.65;2.90;;;29.90;86.80;;;;;;5049624;28;20493;-75
2022/09/03 11:50:50;;;;;;;9.50;2.70;;;30.00;86.00;;;;;;5050698;28;20077;-75
2022/09/03 11:53:18;;;;;;;9.80;2.40;;;28.90;86.90;;;;;;5066319;28;20032;-75
2022/09/03 11:55:54;;;;;;;3.13;2.37;;;28.10;88.50;;;;;;5011499;28;1116466;-74
2022/09/03 11:58:41;;;;;;;6.80;2.45;;;28.20;88.80;;;;;;5050205;28;20033;-75
2022/09/03 12:01:14;;;;;;;7.38;2.92;;;27.80;89.20;;;;;;5051744;28;20052;-76
2022/09/03 12:03:52;;;;;;;4.90;2.85;;;28.40;87.60;;;;;;5050985;28;20413;-74
2022/09/03 12:06:46;;;;;;;3.15;2.38;;;28.30;86.90;;;;;;5066986;28;20033;-75
2022/09/03 12:09:36;;;;;;;4.00;2.00;;;29.40;85.90;;;;;;5050537;28;20082;-75
2022/09/03 12:12:26;;;;;;;4.65;2.40;;;30.40;85.00;;;;;;5050525;28;20055;-75
2022/09/03 12:15:01;;;;;;;15.65;2.47;;;30.20;84.40;;;;;;5032478;28;20033;-76
2022/09/03 12:17:32;;;;;;;5.65;2.70;;;30.70;83.50;;;;;;5053848;28;20111;-74
2022/09/03 12:19:58;;;;;;;27.75;4.53;;;30.10;86.00;;;;;;5052225;28;20025;-75
2022/09/03 12:22:29;;;;;;;10.00;2.80;;;30.70;85.20;;;;;;5050689;28;20523;-75
2022/09/03 12:25:06;;;;;;;;;;;30.90;83.60;;;;;;5051489;28;20469;-75
2022/09/03 12:27:32;;;;;;;11.27;2.70;;;31.10;84.00;;;;;;5051141;28;20266;-75
2022/09/03 12:30:04;;;;;;;4.63;3.15;;;32.40;82.50;;;;;;5052002;28;20025;-75
2022/09/03 12:32:35;;;;;;;7.88;3.13;;;33.00;81.50;;;;;;5051739;28;20590;-75
2022/09/03 12:35:22;;;;;;;9.20;2.72;;;32.70;82.40;;;;;;5052079;28;20029;-75
2022/09/03 12:37:51;;;;;;;5.38;2.70;;;32.30;82.00;;;;;;5036441;28;20079;-74
2022/09/03 12:40:21;;;;;;;8.35;2.90;;;31.30;82.60;;;;;;5050459;28;20033;-75
2022/09/03 12:42:48;;;;;;;6.60;3.83;;;30.10;84.60;;;;;;5053407;28;20354;-75
2022/09/03 12:45:27;;;;;;;15.80;4.47;;;30.40;84.80;;;;;;5056067;28;20079;-74
2022/09/03 12:47:53;;;;;;;4.88;3.10;;;31.30;85.20;;;;;;5055613;28;20080;-76
2022/09/03 12:50:23;;;;;;;4.85;2.45;;;30.80;84.20;;;;;;5055641;28;20405;-75
2022/09/03 12:52:58;;;;;;;5.75;2.58;;;30.40;83.90;;;;;;5054713;28;20119;-75
2022/09/03 12:55:29;;;;;;;6.88;2.60;;;30.40;84.30;;;;;;5042664;28;20087;-83
2022/09/03 12:58:06;;;;;;;7.47;2.97;;;31.30;83.20;;;;;;5055698;28;20059;-75
2022/09/03 13:00:36;;;;;;;10.98;2.95;;;33.00;82.00;;;;;;5042932;28;20021;-76
2022/09/03 13:03:33;;;;;;;9.13;2.15;;;33.50;80.90;;;;;;5047885;28;20448;-75
2022/09/03 13:06:12;;;;;;;8.73;3.10;;;32.00;81.70;;;;;;5039363;28;20036;-76
2022/09/03 13:08:46;;;;;;;4.55;2.50;;;31.40;82.00;;;;;;5052127;28;20032;-76
2022/09/03 13:11:18;;;;;;;7.43;2.63;;;31.00;81.80;;;;;;5054542;28;20029;-75
2022/09/03 13:14:11;;;;;;;8.88;2.53;;;31.70;81.50;;;;;;5054805;28;20025;-76
2022/09/03 13:16:37;;;;;;;4.55;2.33;;;32.10;81.20;;;;;;5051912;28;20045;-75
2022/09/03 13:19:14;;;;;;;6.72;2.60;;;32.50;79.10;;;;;;5053365;28;20489;-75
2022/09/03 13:22:05;;;;;;;9.25;3.13;;;32.20;80.20;;;;;;5051268;28;20043;-75
2022/09/03 13:24:46;;;;;;;9.30;2.60;;;31.30;82.00;;;;;;5053218;28;20041;-76